Time;durP1;ratioP1;P1;durP2;ratioP2;P2;SDS_P1;SDS_P2;PMS_P1;PMS_P2;Temp;Humidity;BMP_temperature;BMP_pressure;BME280_temperature;BME280_humidity;BME280_pressure;Samples;Min_cycle;Max_cycle;Signal;HPM_P1;HPM_P2
2023/05/06 00:00:38;;;;;;;6.22;4.47;;;11.70;99.90;;;;;;5049906;28;20489;-63
2023/05/06 00:03:04;;;;;;;8.50;4.68;;;11.70;99.90;;;;;;5035885;28;20071;-63
2023/05/06 00:05:29;;;;;;;5.50;4.35;;;11.60;99.90;;;;;;5034137;28;20072;-63
2023/05/06 00:07:55;;;;;;;5.82;4.43;;;11.60;99.90;;;;;;5074941;28;20110;-63
2023/05/06 00:10:24;;;;;;;5.60;4.13;;;11.60;99.90;;;;;;5040985;28;20043;-63
2023/05/06 00:12:49;;;;;;;5.65;4.40;;;11.50;99.90;;;;;;5046093;28;20557;-63
2023/05/06 00:15:15;;;;;;;5.72;4.20;;;11.50;99.90;;;;;;5064624;28;20554;-64
2023/05/06 00:17:41;;;;;;;6.75;4.47;;;11.50;99.90;;;;;;5067526;28;20384;-64
2023/05/06 00:20:08;;;;;;;6.47;3.97;;;11.40;99.90;;;;;;5071064;28;20042;-63
2023/05/06 00:22:34;;;;;;;5.15;3.70;;;11.40;99.90;;;;;;5047962;28;20044;-63
2023/05/06 00:25:03;;;;;;;5.50;4.07;;;11.40;99.90;;;;;;5058841;28;20166;-63
2023/05/06 00:27:28;;;;;;;6.90;4.40;;;11.40;99.90;;;;;;5075445;28;20062;-63
2023/05/06 00:29:54;;;;;;;6.85;4.68;;;11.40;99.90;;;;;;5070319;28;20036;-64
2023/05/06 00:32:19;;;;;;;8.73;4.40;;;11.40;99.90;;;;;;5045719;28;20090;-63
2023/05/06 00:34:45;;;;;;;4.40;3.22;;;11.40;99.90;;;;;;5068308;28;20041;-63
2023/05/06 00:37:11;;;;;;;5.05;3.05;;;11.40;99.90;;;;;;5060685;28;20265;-64
2023/05/06 00:39:36;;;;;;;4.88;3.30;;;11.40;99.90;;;;;;5062633;28;20120;-63
2023/05/06 00:42:02;;;;;;;4.63;3.47;;;11.40;99.90;;;;;;5060711;28;20503;-63
2023/05/06 00:44:29;;;;;;;5.55;3.70;;;11.40;99.90;;;;;;5066579;28;20051;-63
2023/05/06 00:46:55;;;;;;;4.95;4.00;;;11.40;99.90;;;;;;5035296;28;20052;-63
2023/05/06 00:49:22;;;;;;;10.35;3.90;;;11.40;99.90;;;;;;5038892;28;20048;-63
2023/05/06 00:51:49;;;;;;;5.93;4.13;;;11.40;99.90;;;;;;5041678;28;20040;-63
2023/05/06 00:54:15;;;;;;;5.45;4.35;;;11.40;99.90;;;;;;5058370;28;20025;-63
2023/05/06 00:56:41;;;;;;;5.43;4.40;;;11.40;99.90;;;;;;5041691;28;20036;-63
2023/05/06 00:59:07;;;;;;;8.40;5.03;;;11.40;99.90;;;;;;5057174;28;20063;-63
2023/05/06 01:01:32;;;;;;;6.05;4.40;;;11.40;99.90;;;;;;5070453;28;20037;-63
2023/05/06 01:03:59;;;;;;;6.80;4.80;;;11.40;99.90;;;;;;5060840;28;20112;-63
2023/05/06 01:06:31;;;;;;;4.95;3.88;;;11.50;99.90;;;;;;5050691;28;20050;-63
2023/05/06 01:09:06;;;;;;;5.90;4.35;;;11.40;99.90;;;;;;5038312;28;20051;-63
2023/05/06 01:11:48;;;;;;;6.40;4.53;;;11.30;99.90;;;;;;5052671;28;20072;-63
2023/05/06 01:14:32;;;;;;;7.55;4.35;;;11.30;99.90;;;;;;5070833;28;20038;-63
2023/05/06 01:17:03;;;;;;;6.78;4.45;;;11.30;99.90;;;;;;5052594;28;20037;-64
2023/05/06 01:19:35;;;;;;;6.57;5.13;;;11.20;99.90;;;;;;5075432;28;20033;-64
2023/05/06 01:22:04;;;;;;;8.70;5.43;;;11.20;99.90;;;;;;5054177;28;20043;-64
2023/05/06 01:24:36;;;;;;;7.88;5.32;;;11.20;99.90;;;;;;5058358;28;20428;-63
2023/05/06 01:27:01;;;;;;;6.82;5.07;;;11.20;99.90;;;;;;5050034;28;20390;-63
2023/05/06 01:29:27;;;;;;;6.85;5.20;;;11.20;99.90;;;;;;5075750;28;20052;-64
2023/05/06 01:32:00;;;;;;;8.00;5.40;;;11.20;99.90;;;;;;5066526;28;20468;-64
2023/05/06 01:35:01;;;;;;;6.28;4.40;;;11.20;99.90;;;;;;5056405;28;20056;-63
2023/05/06 01:37:37;;;;;;;5.80;4.40;;;11.10;99.90;;;;;;5073053;28;20032;-63
2023/05/06 01:40:04;;;;;;;6.00;4.25;;;11.00;99.90;;;;;;5041650;28;20105;-63
2023/05/06 01:42:31;;;;;;;7.55;4.90;;;11.00;99.90;;;;;;5038388;28;20041;-63
2023/05/06 01:45:00;;;;;;;10.52;5.70;;;10.90;99.90;;;;;;5051007;28;20089;-63
2023/05/06 01:47:26;;;;;;;7.15;5.13;;;10.90;99.90;;;;;;5060132;28;20040;-63
2023/05/06 01:49:51;;;;;;;8.70;5.55;;;10.90;99.90;;;;;;5040604;28;20036;-63
2023/05/06 01:52:19;;;;;;;8.85;6.13;;;10.80;99.90;;;;;;5071556;28;20025;-63
2023/05/06 01:54:45;;;;;;;8.52;6.45;;;10.80;99.90;;;;;;5077986;28;20052;-63
2023/05/06 01:57:10;;;;;;;8.57;6.45;;;10.80;99.90;;;;;;5041203;28;20085;-63
2023/05/06 01:59:36;;;;;;;10.00;6.72;;;10.80;99.90;;;;;;5067413;28;20458;-63
2023/05/06 02:02:02;;;;;;;8.77;6.13;;;10.80;99.90;;;;;;5076878;28;20032;-63
2023/05/06 02:04:27;;;;;;;8.20;6.10;;;10.80;99.90;;;;;;5075011;28;20045;-63
2023/05/06 02:06:53;;;;;;;8.70;6.50;;;10.80;99.90;;;;;;5065255;28;20086;-63
2023/05/06 02:09:18;;;;;;;8.73;6.88;;;10.80;99.90;;;;;;5065797;28;20042;-63
2023/05/06 02:11:45;;;;;;;8.05;6.13;;;10.80;99.90;;;;;;5096279;22;20118;-76
2023/05/06 02:14:10;;;;;;;7.97;5.90;;;10.80;99.90;;;;;;5087168;28;20090;-80
2023/05/06 02:16:36;;;;;;;8.70;5.50;;;10.80;99.90;;;;;;5088025;28;20036;-79
2023/05/06 02:19:02;;;;;;;8.80;5.15;;;10.80;99.90;;;;;;5091204;28;20479;-78
2023/05/06 02:21:27;;;;;;;7.20;5.60;;;10.90;99.90;;;;;;5077769;28;20046;-80
2023/05/06 02:23:53;;;;;;;8.15;5.80;;;10.80;99.90;;;;;;5065068;28;20032;-80
2023/05/06 02:26:19;;;;;;;7.70;5.43;;;10.90;99.90;;;;;;5045794;22;20057;-65
2023/05/06 02:28:45;;;;;;;7.95;5.82;;;10.90;99.90;;;;;;5048031;28;20053;-64
2023/05/06 02:31:14;;;;;;;7.60;5.32;;;10.90;99.90;;;;;;5050565;28;20041;-64
2023/05/06 02:33:40;;;;;;;7.63;5.95;;;10.90;99.90;;;;;;5055684;28;20040;-65
2023/05/06 02:36:06;;;;;;;6.45;4.97;;;10.90;99.90;;;;;;5059335;28;20029;-65
2023/05/06 02:38:32;;;;;;;6.45;4.80;;;10.80;99.90;;;;;;5066285;28;20036;-64
2023/05/06 02:40:57;;;;;;;9.13;5.25;;;10.70;99.90;;;;;;5060686;28;20037;-64
2023/05/06 02:43:23;;;;;;;6.80;5.15;;;10.70;99.90;;;;;;5056805;28;20489;-64
2023/05/06 02:45:48;;;;;;;6.75;5.10;;;10.70;99.90;;;;;;5058200;28;20037;-64
2023/05/06 02:48:15;;;;;;;6.70;5.28;;;10.70;99.90;;;;;;5061918;28;20063;-64
2023/05/06 02:50:40;;;;;;;8.88;6.18;;;10.60;99.90;;;;;;5066592;28;20044;-64
2023/05/06 02:53:07;;;;;;;10.02;6.20;;;10.60;99.90;;;;;;5065781;28;20036;-64
2023/05/06 02:55:33;;;;;;;11.13;6.68;;;10.60;99.90;;;;;;5067207;28;20055;-64
2023/05/06 02:57:58;;;;;;;10.27;6.80;;;10.60;99.90;;;;;;5069468;28;20394;-64
2023/05/06 03:00:24;;;;;;;8.32;6.20;;;10.60;99.90;;;;;;5065213;28;20052;-64
2023/05/06 03:02:50;;;;;;;8.35;6.43;;;10.60;99.90;;;;;;5061170;28;20039;-64
2023/05/06 03:05:15;;;;;;;8.90;6.40;;;10.60;99.90;;;;;;5070506;28;20032;-65
2023/05/06 03:07:41;;;;;;;6.93;4.95;;;10.60;99.90;;;;;;5066921;28;20044;-64
2023/05/06 03:10:07;;;;;;;5.35;4.00;;;10.60;99.90;;;;;;5059964;28;20059;-64
2023/05/06 03:12:32;;;;;;;5.80;4.20;;;10.50;99.90;;;;;;5063980;28;20059;-64
2023/05/06 03:14:58;;;;;;;6.40;4.45;;;10.50;99.90;;;;;;5061444;28;20047;-64
2023/05/06 03:17:24;;;;;;;6.93;5.00;;;10.40;99.90;;;;;;5068480;28;20036;-64
2023/05/06 03:19:49;;;;;;;7.53;5.60;;;10.40;99.90;;;;;;5065478;28;20127;-64
2023/05/06 03:22:15;;;;;;;9.43;5.70;;;10.30;99.90;;;;;;5055197;28;20047;-64
2023/05/06 03:24:40;;;;;;;8.80;5.80;;;10.30;99.90;;;;;;5067469;28;20469;-65
2023/05/06 03:27:06;;;;;;;7.95;5.80;;;10.30;99.90;;;;;;5063691;28;20040;-64
2023/05/06 03:29:31;;;;;;;8.13;6.15;;;10.30;99.90;;;;;;5063972;28;20032;-64
2023/05/06 03:32:00;;;;;;;8.82;6.55;;;10.30;99.90;;;;;;5056822;28;20044;-64
2023/05/06 03:34:27;;;;;;;9.13;6.53;;;10.30;99.90;;;;;;5062206;28;20052;-64
2023/05/06 03:36:53;;;;;;;9.95;7.32;;;10.30;99.90;;;;;;5059844;28;20384;-64
2023/05/06 03:39:18;;;;;;;8.05;6.30;;;10.30;99.90;;;;;;5069088;28;20155;-64
2023/05/06 03:41:44;;;;;;;8.60;6.70;;;10.30;99.90;;;;;;5061396;28;20457;-64
2023/05/06 03:44:10;;;;;;;8.95;6.65;;;10.30;99.90;;;;;;5065021;28;20033;-64
2023/05/06 03:46:35;;;;;;;9.73;7.40;;;10.30;99.90;;;;;;5064801;28;22430;-64
2023/05/06 03:49:01;;;;;;;10.20;6.72;;;10.30;99.90;;;;;;5058197;28;20149;-64
2023/05/06 03:51:27;;;;;;;9.68;6.97;;;10.30;99.90;;;;;;5062354;28;20044;-64
2023/05/06 03:53:53;;;;;;;9.35;6.90;;;10.30;99.90;;;;;;5059414;28;20056;-64
2023/05/06 03:56:21;;;;;;;9.77;7.35;;;10.20;99.90;;;;;;5060019;28;20087;-64
2023/05/06 03:58:47;;;;;;;9.48;7.22;;;10.20;99.90;;;;;;5051515;28;20052;-64
2023/05/06 04:01:13;;;;;;;11.50;8.00;;;10.20;99.90;;;;;;5066068;28;20037;-64
2023/05/06 04:03:38;;;;;;;11.48;7.70;;;10.20;99.90;;;;;;5062391;28;20474;-65
2023/05/06 04:06:04;;;;;;;10.70;7.70;;;10.20;99.90;;;;;;5056670;28;20103;-64
2023/05/06 04:08:30;;;;;;;10.10;7.57;;;10.20;99.90;;;;;;5062972;28;20037;-64
2023/05/06 04:10:56;;;;;;;11.45;7.85;;;10.20;99.90;;;;;;5057501;28;20179;-65
2023/05/06 04:13:22;;;;;;;10.85;7.78;;;10.20;99.90;;;;;;5062516;28;20036;-64
2023/05/06 04:15:49;;;;;;;13.00;8.02;;;10.10;99.90;;;;;;5063535;28;20064;-64
2023/05/06 04:18:18;;;;;;;10.18;7.20;;;10.10;99.90;;;;;;5064886;28;20502;-64
2023/05/06 04:20:47;;;;;;;11.98;7.63;;;10.10;99.90;;;;;;5060548;28;20072;-65
2023/05/06 04:23:13;;;;;;;10.45;7.60;;;10.10;99.90;;;;;;5057600;28;20061;-64
2023/05/06 04:25:41;;;;;;;10.38;8.07;;;10.10;99.90;;;;;;5068629;28;20473;-65
2023/05/06 04:28:08;;;;;;;12.73;8.50;;;10.10;99.90;;;;;;5062827;28;20033;-64
2023/05/06 04:30:34;;;;;;;11.00;8.40;;;10.10;99.90;;;;;;5068070;28;20041;-64
2023/05/06 04:33:01;;;;;;;10.80;8.40;;;10.10;99.90;;;;;;5058712;28;20028;-64
2023/05/06 04:35:27;;;;;;;12.00;8.77;;;10.10;99.90;;;;;;5068573;28;20045;-64
2023/05/06 04:37:52;;;;;;;11.05;7.85;;;10.10;99.90;;;;;;5064918;28;20074;-64
2023/05/06 04:40:18;;;;;;;12.85;8.38;;;10.10;99.90;;;;;;5063442;28;20064;-64
2023/05/06 04:42:43;;;;;;;10.63;8.15;;;10.10;99.90;;;;;;5068522;28;20036;-64
2023/05/06 04:45:10;;;;;;;10.57;8.18;;;10.10;99.90;;;;;;5056881;28;20029;-64
2023/05/06 04:47:36;;;;;;;10.85;8.27;;;10.10;99.90;;;;;;5062408;28;20123;-64
2023/05/06 04:50:03;;;;;;;10.85;8.68;;;10.10;99.90;;;;;;5064782;28;20112;-65
2023/05/06 04:52:29;;;;;;;12.55;8.85;;;10.10;99.90;;;;;;5065927;28;20055;-64
2023/05/06 04:54:54;;;;;;;11.63;8.65;;;10.20;99.90;;;;;;5061894;28;20052;-64
2023/05/06 04:57:20;;;;;;;13.73;9.77;;;10.20;99.90;;;;;;5059067;28;20175;-65
2023/05/06 04:59:45;;;;;;;13.05;9.73;;;10.20;99.90;;;;;;5065215;28;20040;-64
2023/05/06 05:02:11;;;;;;;13.02;8.95;;;10.20;99.90;;;;;;5067231;28;20045;-64
2023/05/06 05:04:37;;;;;;;10.75;7.88;;;10.30;99.90;;;;;;5066282;28;20153;-64
2023/05/06 05:07:02;;;;;;;9.18;6.95;;;10.30;99.90;;;;;;5060199;28;20048;-64
2023/05/06 05:09:28;;;;;;;9.88;7.07;;;10.30;99.90;;;;;;5055235;28;20041;-64
2023/05/06 05:11:53;;;;;;;9.40;6.53;;;10.30;99.90;;;;;;5058722;28;20079;-65
2023/05/06 05:14:19;;;;;;;11.23;7.55;;;10.30;99.90;;;;;;5067403;28;20503;-65
2023/05/06 05:16:44;;;;;;;11.27;7.80;;;10.30;99.90;;;;;;5062633;28;20406;-64
2023/05/06 05:19:10;;;;;;;12.90;9.15;;;10.40;99.90;;;;;;5068513;28;20029;-65
2023/05/06 05:21:36;;;;;;;12.40;9.10;;;10.40;99.90;;;;;;5058108;28;20047;-64
2023/05/06 05:24:02;;;;;;;12.90;9.48;;;10.50;99.90;;;;;;5067782;28;20475;-64
2023/05/06 05:26:27;;;;;;;12.77;8.70;;;10.50;99.90;;;;;;5066679;28;20047;-64
2023/05/06 05:28:53;;;;;;;10.07;7.93;;;10.60;99.90;;;;;;5058294;28;20045;-65
2023/05/06 05:31:18;;;;;;;10.02;8.00;;;10.70;99.90;;;;;;5059925;28;20040;-65
2023/05/06 05:33:44;;;;;;;12.73;9.07;;;10.70;99.90;;;;;;5060904;28;20040;-64
2023/05/06 05:36:11;;;;;;;12.52;9.45;;;11.30;99.90;;;;;;5064188;28;20460;-65
2023/05/06 05:38:36;;;;;;;11.02;9.05;;;10.80;99.90;;;;;;5060083;28;20398;-65
2023/05/06 05:41:02;;;;;;;13.60;9.68;;;10.90;99.90;;;;;;5069204;28;20040;-65
2023/05/06 05:43:28;;;;;;;14.20;10.55;;;11.00;99.90;;;;;;5063594;28;20037;-65
2023/05/06 05:45:53;;;;;;;12.52;10.07;;;11.00;99.90;;;;;;5060558;28;20056;-65
2023/05/06 05:48:19;;;;;;;15.05;10.85;;;11.10;99.90;;;;;;5068161;28;20505;-65
2023/05/06 05:50:45;;;;;;;12.50;10.02;;;11.20;99.90;;;;;;5060161;28;20043;-65
2023/05/06 05:53:10;;;;;;;14.30;10.35;;;11.20;99.90;;;;;;5066426;28;20654;-64
2023/05/06 05:55:36;;;;;;;15.18;10.00;;;11.30;99.90;;;;;;5056582;28;20037;-65
2023/05/06 05:58:02;;;;;;;13.77;11.02;;;11.30;99.90;;;;;;5059782;28;20501;-65
2023/05/06 06:00:27;;;;;;;13.90;11.02;;;11.30;99.90;;;;;;5068924;28;20070;-65
2023/05/06 06:02:53;;;;;;;13.63;10.32;;;11.40;99.90;;;;;;5071232;28;20067;-65
2023/05/06 06:05:18;;;;;;;15.73;11.10;;;11.40;99.90;;;;;;5066921;28;20384;-65
2023/05/06 06:07:44;;;;;;;16.98;12.55;;;11.40;99.90;;;;;;5061100;28;20041;-65
2023/05/06 06:10:12;;;;;;;18.30;13.10;;;11.50;99.90;;;;;;5057978;28;20060;-65
2023/05/06 06:12:37;;;;;;;19.13;12.95;;;11.50;99.90;;;;;;5062632;28;20028;-64
2023/05/06 06:15:03;;;;;;;19.75;13.85;;;11.50;99.90;;;;;;5066824;28;20036;-65
2023/05/06 06:17:29;;;;;;;20.75;14.02;;;11.60;99.90;;;;;;5065824;28;20040;-64
2023/05/06 06:19:56;;;;;;;20.77;14.52;;;11.60;99.90;;;;;;5064869;28;20047;-64
2023/05/06 06:22:22;;;;;;;24.17;14.45;;;11.70;99.90;;;;;;5072119;28;20048;-64
2023/05/06 06:24:47;;;;;;;18.15;14.18;;;11.70;99.90;;;;;;5069347;28;20078;-65
2023/05/06 06:27:13;;;;;;;19.55;14.52;;;11.70;99.90;;;;;;5062687;28;20072;-64
2023/05/06 06:29:38;;;;;;;17.33;12.95;;;11.80;99.90;;;;;;5064883;28;20048;-65
2023/05/06 06:32:04;;;;;;;19.67;14.30;;;11.80;99.90;;;;;;5071904;28;20035;-65
2023/05/06 06:34:30;;;;;;;19.77;14.57;;;11.90;99.90;;;;;;5071091;28;20044;-64
2023/05/06 06:36:56;;;;;;;20.70;14.93;;;12.00;99.90;;;;;;5067393;28;20525;-65
2023/05/06 06:39:21;;;;;;;21.10;15.02;;;12.00;99.90;;;;;;5065157;28;20085;-65
2023/05/06 06:41:47;;;;;;;23.13;15.82;;;12.10;99.90;;;;;;5067801;28;20057;-65
2023/05/06 06:44:12;;;;;;;21.77;15.75;;;12.10;99.90;;;;;;5065091;28;20055;-65
2023/05/06 06:46:38;;;;;;;19.25;14.30;;;12.10;99.90;;;;;;5065638;28;20292;-65
2023/05/06 06:49:03;;;;;;;18.40;13.68;;;12.20;99.90;;;;;;5070541;28;20029;-65
2023/05/06 06:51:30;;;;;;;18.27;13.90;;;12.30;99.90;;;;;;5063580;28;20094;-65
2023/05/06 06:53:56;;;;;;;20.02;14.70;;;12.40;99.90;;;;;;5065738;28;20043;-65
2023/05/06 06:56:22;;;;;;;19.92;14.10;;;12.50;99.90;;;;;;5069796;28;20440;-65
2023/05/06 06:58:47;;;;;;;19.17;13.55;;;12.50;99.90;;;;;;5071193;28;20055;-65
2023/05/06 07:01:13;;;;;;;20.65;14.20;;;12.50;99.90;;;;;;5059485;28;20044;-65
2023/05/06 07:03:38;;;;;;;18.27;13.25;;;12.60;99.90;;;;;;5068109;28;20486;-65
2023/05/06 07:06:04;;;;;;;19.90;12.90;;;12.60;99.90;;;;;;5064056;28;20039;-65
2023/05/06 07:08:30;;;;;;;17.88;13.18;;;12.70;99.90;;;;;;5066024;28;20491;-65
2023/05/06 07:10:55;;;;;;;17.83;13.45;;;12.70;99.90;;;;;;5066623;28;20478;-65
2023/05/06 07:13:24;;;;;;;20.40;13.27;;;12.80;99.90;;;;;;5055707;28;20405;-65
2023/05/06 07:15:49;;;;;;;18.52;13.23;;;12.80;99.90;;;;;;5059419;28;20136;-65
2023/05/06 07:18:15;;;;;;;18.33;13.73;;;12.80;99.90;;;;;;5065254;28;20299;-65
2023/05/06 07:20:40;;;;;;;16.98;11.82;;;12.80;99.90;;;;;;5065003;28;20047;-65
2023/05/06 07:23:06;;;;;;;17.08;12.30;;;12.80;99.90;;;;;;5067085;28;20082;-65
2023/05/06 07:25:32;;;;;;;18.33;13.35;;;12.90;99.90;;;;;;5067864;28;20036;-65
2023/05/06 07:27:57;;;;;;;18.40;13.70;;;12.90;99.90;;;;;;5057961;28;20040;-65
2023/05/06 07:30:23;;;;;;;19.45;13.93;;;12.90;99.90;;;;;;5066026;28;20033;-63
2023/05/06 07:32:49;;;;;;;18.65;13.45;;;12.90;99.90;;;;;;5064630;28;20436;-63
2023/05/06 07:35:15;;;;;;;17.00;13.00;;;12.80;99.90;;;;;;5067517;28;20094;-64
2023/05/06 07:37:40;;;;;;;16.67;12.82;;;12.90;99.90;;;;;;5062934;28;20082;-63
2023/05/06 07:40:06;;;;;;;17.85;12.70;;;12.90;99.90;;;;;;5068705;28;20067;-63
2023/05/06 07:42:32;;;;;;;15.40;12.30;;;13.00;99.90;;;;;;5069361;28;20158;-64
2023/05/06 07:44:57;;;;;;;15.15;11.23;;;13.00;99.90;;;;;;5069026;28;20485;-64
2023/05/06 07:47:28;;;;;;;16.17;11.40;;;13.10;99.90;;;;;;5063233;28;20059;-64
2023/05/06 07:49:54;;;;;;;14.68;11.10;;;13.10;99.90;;;;;;5066171;28;20044;-64
2023/05/06 07:52:20;;;;;;;16.17;11.20;;;13.10;99.90;;;;;;5058485;28;20036;-64
2023/05/06 07:54:46;;;;;;;15.95;12.10;;;13.20;99.90;;;;;;5059106;28;20160;-64
2023/05/06 07:57:12;;;;;;;18.48;12.35;;;13.30;99.90;;;;;;5057881;28;20040;-64
2023/05/06 07:59:37;;;;;;;17.20;12.38;;;13.40;99.90;;;;;;5067441;28;20597;-64
2023/05/06 08:02:03;;;;;;;17.98;12.52;;;13.40;99.90;;;;;;5055255;28;20059;-64
2023/05/06 08:04:28;;;;;;;17.13;12.65;;;13.50;99.90;;;;;;5070032;28;20033;-64
2023/05/06 08:06:54;;;;;;;16.08;12.05;;;13.60;99.90;;;;;;5068863;28;20040;-64
2023/05/06 08:09:19;;;;;;;16.98;12.10;;;13.60;99.90;;;;;;5061771;28;20525;-64
2023/05/06 08:11:45;;;;;;;18.65;12.45;;;13.70;99.90;;;;;;5057592;28;20486;-64
2023/05/06 08:14:11;;;;;;;17.15;12.40;;;13.80;99.90;;;;;;5095099;22;20028;-61
2023/05/06 08:16:36;;;;;;;15.20;11.63;;;13.90;99.90;;;;;;5089013;28;20605;-63
2023/05/06 08:19:02;;;;;;;16.88;11.85;;;13.90;99.90;;;;;;5082084;28;20040;-62
2023/05/06 08:21:27;;;;;;;18.33;12.75;;;14.10;99.90;;;;;;5087701;28;20040;-65
2023/05/06 08:23:53;;;;;;;14.52;11.45;;;14.20;99.90;;;;;;5085938;28;20438;-61
2023/05/06 08:26:18;;;;;;;18.48;12.15;;;14.30;99.90;;;;;;5087678;28;20044;-61
2023/05/06 08:28:44;;;;;;;16.88;11.93;;;14.40;99.90;;;;;;5083247;28;20043;-62
2023/05/06 08:31:10;;;;;;;14.95;11.13;;;14.60;99.90;;;;;;5084946;28;20115;-64
2023/05/06 08:33:35;;;;;;;18.60;12.38;;;14.80;99.90;;;;;;5089799;28;20044;-61
2023/05/06 08:36:01;;;;;;;15.55;11.48;;;15.10;99.90;;;;;;5087289;28;20379;-61
2023/05/06 08:38:29;;;;;;;14.48;11.63;;;15.30;99.90;;;;;;5081539;28;20051;-61
2023/05/06 08:40:59;;;;;;;14.07;11.27;;;15.60;99.90;;;;;;5088219;28;20085;-62
2023/05/06 08:43:27;;;;;;;14.55;10.43;;;15.70;99.90;;;;;;5090097;28;20039;-62
2023/05/06 08:45:53;;;;;;;14.77;10.55;;;16.00;99.90;;;;;;5087222;28;20052;-62
2023/05/06 08:48:19;;;;;;;13.85;10.05;;;16.10;99.90;;;;;;5087162;28;20442;-62
2023/05/06 08:50:47;;;;;;;15.30;11.15;;;16.30;99.90;;;;;;5089850;28;20125;-62
2023/05/06 08:53:13;;;;;;;12.93;10.07;;;16.50;99.90;;;;;;5085191;28;20031;-62
2023/05/06 08:55:43;;;;;;;12.73;9.45;;;16.70;99.90;;;;;;5088181;28;20495;-62
2023/05/06 08:58:12;;;;;;;16.02;9.98;;;16.90;99.90;;;;;;5086076;28;20413;-61
2023/05/06 09:00:37;;;;;;;15.50;9.93;;;17.00;99.90;;;;;;5088939;28;20032;-62
2023/05/06 09:03:03;;;;;;;15.23;10.75;;;17.10;99.90;;;;;;5089919;28;20042;-62
2023/05/06 09:05:29;;;;;;;15.07;10.32;;;17.30;99.90;;;;;;5081800;28;20071;-64
2023/05/06 09:07:54;;;;;;;19.10;11.18;;;17.40;99.90;;;;;;5090525;28;20028;-62
2023/05/06 09:10:20;;;;;;;18.42;12.68;;;17.50;99.90;;;;;;5092193;28;20431;-62
2023/05/06 09:12:46;;;;;;;16.95;11.32;;;17.60;99.90;;;;;;5091237;28;20038;-61
2023/05/06 09:15:11;;;;;;;14.55;10.73;;;17.80;99.90;;;;;;5089357;28;20417;-62
2023/05/06 09:17:37;;;;;;;15.55;10.07;;;18.00;99.90;;;;;;5089440;28;20336;-65
2023/05/06 09:20:07;;;;;;;14.20;10.52;;;18.20;99.90;;;;;;5073649;28;20394;-61
2023/05/06 09:22:32;;;;;;;13.77;10.25;;;18.30;99.90;;;;;;5087768;28;20097;-67
2023/05/06 09:24:58;;;;;;;13.85;10.82;;;18.30;99.90;;;;;;5090639;28;20409;-63
2023/05/06 09:27:30;;;;;;;17.90;11.23;;;18.50;99.90;;;;;;5088941;28;20088;-63
2023/05/06 09:30:12;;;;;;;14.85;10.75;;;18.70;99.90;;;;;;5086783;28;20068;-62
2023/05/06 09:32:38;;;;;;;17.95;12.63;;;18.90;99.90;;;;;;5091147;28;20135;-63
2023/05/06 09:35:04;;;;;;;15.95;11.73;;;19.00;99.90;;;;;;5091970;28;20183;-64
2023/05/06 09:37:30;;;;;;;15.00;10.85;;;19.00;99.90;;;;;;5093426;28;20051;-65
2023/05/06 09:39:59;;;;;;;14.80;11.52;;;19.10;99.90;;;;;;5088078;28;20062;-66
2023/05/06 09:42:27;;;;;;;19.92;12.15;;;19.30;99.90;;;;;;5092768;28;20039;-62
2023/05/06 09:44:55;;;;;;;15.95;11.45;;;19.40;99.90;;;;;;5075335;28;20044;-62
2023/05/06 09:47:25;;;;;;;14.80;11.05;;;19.50;99.90;;;;;;5088424;28;20098;-63
2023/05/06 09:49:55;;;;;;;16.98;11.68;;;19.50;99.90;;;;;;5083930;28;20489;-63
2023/05/06 09:52:22;;;;;;;14.98;11.30;;;19.50;99.90;;;;;;5091889;28;20047;-65
2023/05/06 09:54:50;;;;;;;15.13;11.13;;;19.60;99.90;;;;;;5092875;28;20043;-63
2023/05/06 09:57:17;;;;;;;16.52;10.95;;;19.50;99.90;;;;;;5092512;28;20062;-63
2023/05/06 09:59:43;;;;;;;16.65;11.48;;;19.60;99.90;;;;;;5091673;28;20036;-66
2023/05/06 10:02:11;;;;;;;17.20;11.95;;;19.70;99.90;;;;;;5092969;28;20028;-66
2023/05/06 10:04:40;;;;;;;16.35;11.20;;;19.80;99.90;;;;;;5092444;28;20154;-66
2023/05/06 10:07:07;;;;;;;13.18;9.60;;;19.90;99.90;;;;;;5091516;28;20173;-63
2023/05/06 10:09:34;;;;;;;12.43;9.10;;;20.10;99.90;;;;;;5092480;28;20032;-67
2023/05/06 10:12:01;;;;;;;15.20;11.30;;;20.40;99.90;;;;;;5086990;28;20048;-63
2023/05/06 10:14:27;;;;;;;13.18;9.90;;;20.50;99.90;;;;;;5092197;28;20032;-63
2023/05/06 10:16:53;;;;;;;15.15;10.60;;;20.60;99.90;;;;;;5091183;28;20137;-64
2023/05/06 10:19:23;;;;;;;13.35;10.25;;;20.70;99.90;;;;;;5092076;28;20075;-65
2023/05/06 10:21:56;;;;;;;15.20;10.60;;;20.80;99.90;;;;;;5091787;28;20066;-66
2023/05/06 10:24:35;;;;;;;12.25;9.18;;;20.90;99.90;;;;;;5092461;28;20028;-63
2023/05/06 10:27:04;;;;;;;12.85;9.45;;;21.00;99.90;;;;;;5087700;28;20371;-63
2023/05/06 10:29:34;;;;;;;12.20;10.02;;;21.10;99.90;;;;;;5092282;28;20078;-65
2023/05/06 10:32:01;;;;;;;15.25;10.27;;;21.10;99.90;;;;;;5083393;28;20036;-64
2023/05/06 10:34:31;;;;;;;14.07;10.23;;;21.30;99.90;;;;;;5091134;28;20047;-63
2023/05/06 10:36:58;;;;;;;14.68;11.02;;;21.30;99.90;;;;;;5086239;28;20043;-63
2023/05/06 10:39:24;;;;;;;13.43;9.77;;;21.10;99.90;;;;;;5089717;28;20060;-63
2023/05/06 10:41:50;;;;;;;13.57;9.60;;;20.90;99.90;;;;;;5090165;28;20077;-63
2023/05/06 10:44:16;;;;;;;14.43;10.88;;;20.70;99.90;;;;;;5090792;28;20424;-67
2023/05/06 10:46:59;;;;;;;14.73;10.77;;;20.70;99.90;;;;;;5091445;28;20124;-64
2023/05/06 10:49:25;;;;;;;13.27;9.55;;;20.80;99.90;;;;;;5091353;28;20044;-64
2023/05/06 10:52:13;;;;;;;13.45;8.95;;;20.80;99.90;;;;;;5092169;28;20040;-63
2023/05/06 10:54:50;;;;;;;12.50;9.98;;;20.70;99.90;;;;;;5089553;28;20055;-63
2023/05/06 10:57:16;;;;;;;14.45;10.60;;;20.50;99.90;;;;;;5097949;28;20032;-64
2023/05/06 10:59:48;;;;;;;17.60;13.38;;;20.60;99.90;;;;;;5096999;28;20035;-63
2023/05/06 11:02:17;;;;;;;20.05;16.58;;;20.70;99.90;;;;;;5091227;28;20108;-64
2023/05/06 11:04:50;;;;;;;18.25;12.00;;;20.70;99.90;;;;;;5085353;28;20047;-62
2023/05/06 11:07:22;;;;;;;13.93;9.25;;;20.90;99.90;;;;;;5088863;28;20067;-63
2023/05/06 11:09:54;;;;;;;14.82;9.02;;;21.20;99.90;;;;;;5077055;28;20504;-63
2023/05/06 11:12:20;;;;;;;11.55;8.75;;;21.50;99.90;;;;;;5098116;28;20047;-63
2023/05/06 11:14:46;;;;;;;14.35;8.98;;;21.80;99.90;;;;;;5096273;28;20040;-63
2023/05/06 11:17:30;;;;;;;11.82;8.15;;;21.90;99.90;;;;;;5092321;28;20036;-63
2023/05/06 11:20:19;;;;;;;10.38;6.75;;;22.00;99.90;;;;;;5083281;28;20028;-63
2023/05/06 11:22:45;;;;;;;12.57;8.15;;;22.20;99.90;;;;;;5091894;28;20036;-63
2023/05/06 11:25:10;;;;;;;9.98;7.57;;;22.20;99.90;;;;;;5088441;28;20394;-63
2023/05/06 11:27:36;;;;;;;14.93;8.55;;;22.10;99.90;;;;;;5090915;28;20063;-63
2023/05/06 11:30:03;;;;;;;10.48;6.68;;;22.00;99.90;;;;;;5083661;28;20531;-64
2023/05/06 11:32:31;;;;;;;8.75;6.22;;;21.80;99.90;;;;;;5093423;28;20122;-63
2023/05/06 11:34:57;;;;;;;10.90;6.28;;;21.60;99.90;;;;;;5090491;28;20039;-63
2023/05/06 11:37:26;;;;;;;10.05;7.20;;;21.40;99.90;;;;;;5086272;28;20092;-64
2023/05/06 11:39:52;;;;;;;12.93;7.57;;;21.10;99.90;;;;;;5083776;28;20054;-63
2023/05/06 11:42:26;;;;;;;11.38;7.90;;;20.90;99.90;;;;;;5091158;28;20119;-63
2023/05/06 11:44:55;;;;;;;11.38;7.72;;;20.70;99.90;;;;;;5093125;28;20513;-63
2023/05/06 11:47:22;;;;;;;12.82;8.23;;;20.50;99.90;;;;;;5092469;28;20040;-63
2023/05/06 11:49:52;;;;;;;10.95;7.55;;;20.30;99.90;;;;;;5084360;28;20032;-65
2023/05/06 11:52:21;;;;;;;13.63;7.82;;;20.10;99.90;;;;;;5095976;28;20047;-62
2023/05/06 11:54:49;;;;;;;9.75;7.10;;;20.20;99.90;;;;;;5087550;28;20119;-63
2023/05/06 11:57:15;;;;;;;10.90;6.68;;;20.30;99.90;;;;;;5094021;28;20072;-63
2023/05/06 11:59:40;;;;;;;10.18;7.32;;;20.50;99.90;;;;;;5087276;28;20048;-64
2023/05/06 12:02:08;;;;;;;11.85;7.53;;;20.70;99.90;;;;;;5086343;28;20389;-66
2023/05/06 12:04:40;;;;;;;10.82;6.93;;;21.00;99.90;;;;;;5089780;28;20044;-62
2023/05/06 12:07:08;;;;;;;9.23;5.35;;;21.20;99.90;;;;;;5093523;28;20497;-62
2023/05/06 12:09:35;;;;;;;10.13;7.03;;;21.60;99.90;;;;;;5085968;28;20040;-62
2023/05/06 12:12:03;;;;;;;10.20;6.03;;;21.90;99.90;;;;;;5092653;28;20032;-62
2023/05/06 12:14:29;;;;;;;9.32;6.28;;;22.10;99.90;;;;;;5089076;28;20090;-66
2023/05/06 12:16:55;;;;;;;9.10;6.07;;;22.30;99.90;;;;;;5088178;28;20045;-62
2023/05/06 12:19:21;;;;;;;8.80;5.72;;;22.30;99.90;;;;;;5089742;28;20505;-67
2023/05/06 12:21:47;;;;;;;10.10;5.80;;;22.30;99.90;;;;;;5088559;28;20359;-66
2023/05/06 12:24:12;;;;;;;11.27;6.10;;;22.20;99.90;;;;;;5089599;28;20031;-62
2023/05/06 12:26:48;;;;;;;8.32;5.70;;;22.00;99.90;;;;;;5086212;28;20032;-62
2023/05/06 12:29:16;;;;;;;9.13;5.57;;;21.70;99.90;;;;;;5083692;28;20061;-64
2023/05/06 12:31:43;;;;;;;11.27;5.40;;;21.40;99.90;;;;;;5088583;28;20032;-62
2023/05/06 12:34:09;;;;;;;7.07;5.15;;;21.20;99.90;;;;;;5088820;28;20032;-63